sensor_id;sensor_type;location;lat;lon;timestamp;pressure;altitude;pressure_sealevel;temperature;humidity
13867;BME280;7003;46.982;15.248;2023-04-27T00:01:29;97377.16;;;5.33;100.00
13867;BME280;7003;46.982;15.248;2023-04-27T00:04:00;97376.56;;;5.36;100.00
13867;BME280;7003;46.982;15.248;2023-04-27T00:06:30;97374.16;;;5.21;100.00
13867;BME280;7003;46.982;15.248;2023-04-27T00:08:57;97375.16;;;5.25;100.00
13867;BME280;7003;46.982;15.248;2023-04-27T00:11:26;97378.78;;;5.29;100.00
13867;BME280;7003;46.982;15.248;2023-04-27T00:13:53;97378.84;;;5.42;100.00
13867;BME280;7003;46.982;15.248;2023-04-27T00:16:20;97372.16;;;5.31;100.00
13867;BME280;7003;46.982;15.248;2023-04-27T00:18:49;97373.22;;;5.30;100.00
13867;BME280;7003;46.982;15.248;2023-04-27T00:21:17;97370.53;;;5.17;100.00
13867;BME280;7003;46.982;15.248;2023-04-27T00:23:46;97365.88;;;5.09;100.00
13867;BME280;7003;46.982;15.248;2023-04-27T00:26:13;97364.66;;;5.20;100.00
13867;BME280;7003;46.982;15.248;2023-04-27T00:28:42;97366.94;;;5.08;100.00
13867;BME280;7003;46.982;15.248;2023-04-27T00:31:11;97371.84;;;4.95;100.00
13867;BME280;7003;46.982;15.248;2023-04-27T00:33:38;97369.66;;;5.02;100.00
13867;BME280;7003;46.982;15.248;2023-04-27T00:36:07;97373.09;;;5.03;100.00
13867;BME280;7003;46.982;15.248;2023-04-27T00:38:36;97367.81;;;5.03;100.00
13867;BME280;7003;46.982;15.248;2023-04-27T00:41:04;97365.94;;;5.03;100.00
13867;BME280;7003;46.982;15.248;2023-04-27T00:43:32;97363.00;;;5.05;100.00
13867;BME280;7003;46.982;15.248;2023-04-27T00:46:08;97371.88;;;5.14;100.00
13867;BME280;7003;46.982;15.248;2023-04-27T00:48:39;97369.06;;;5.06;100.00
13867;BME280;7003;46.982;15.248;2023-04-27T00:51:07;97370.00;;;5.15;100.00
13867;BME280;7003;46.982;15.248;2023-04-27T00:53:35;97367.44;;;5.28;100.00
13867;BME280;7003;46.982;15.248;2023-04-27T00:56:02;97369.31;;;5.28;100.00
13867;BME280;7003;46.982;15.248;2023-04-27T00:58:32;97368.31;;;5.24;100.00
13867;BME280;7003;46.982;15.248;2023-04-27T01:01:00;97369.38;;;5.23;100.00
13867;BME280;7003;46.982;15.248;2023-04-27T01:03:30;97369.88;;;5.25;100.00
13867;BME280;7003;46.982;15.248;2023-04-27T01:06:00;97375.28;;;5.15;100.00
13867;BME280;7003;46.982;15.248;2023-04-27T01:08:27;97381.91;;;5.12;100.00
13867;BME280;7003;46.982;15.248;2023-04-27T01:10:54;97380.69;;;5.04;100.00
13867;BME280;7003;46.982;15.248;2023-04-27T01:13:24;97376.00;;;5.01;100.00
13867;BME280;7003;46.982;15.248;2023-04-27T01:15:53;97383.75;;;4.93;100.00
13867;BME280;7003;46.982;15.248;2023-04-27T01:18:22;97372.97;;;4.89;100.00
13867;BME280;7003;46.982;15.248;2023-04-27T01:20:52;97378.66;;;4.96;100.00
13867;BME280;7003;46.982;15.248;2023-04-27T01:23:21;97383.31;;;5.04;100.00
13867;BME280;7003;46.982;15.248;2023-04-27T01:25:48;97384.69;;;5.02;100.00
13867;BME280;7003;46.982;15.248;2023-04-27T01:28:16;97382.53;;;5.04;100.00
13867;BME280;7003;46.982;15.248;2023-04-27T01:30:43;97380.06;;;5.31;100.00
13867;BME280;7003;46.982;15.248;2023-04-27T01:33:13;97388.69;;;5.37;100.00
13867;BME280;7003;46.982;15.248;2023-04-27T01:35:40;97382.00;;;5.26;100.00
13867;BME280;7003;46.982;15.248;2023-04-27T01:38:07;97381.00;;;5.22;100.00
13867;BME280;7003;46.982;15.248;2023-04-27T01:40:39;97384.13;;;5.24;100.00
13867;BME280;7003;46.982;15.248;2023-04-27T01:43:08;97385.13;;;5.28;100.00
13867;BME280;7003;46.982;15.248;2023-04-27T01:45:36;97390.41;;;5.28;100.00
13867;BME280;7003;46.982;15.248;2023-04-27T01:48:06;97388.69;;;5.37;100.00
13867;BME280;7003;46.982;15.248;2023-04-27T01:50:36;97389.13;;;5.44;100.00
13867;BME280;7003;46.982;15.248;2023-04-27T01:53:05;97392.53;;;5.45;100.00
13867;BME280;7003;46.982;15.248;2023-04-27T01:55:35;97387.56;;;5.24;100.00
13867;BME280;7003;46.982;15.248;2023-04-27T01:58:04;97395.59;;;5.14;100.00
13867;BME280;7003;46.982;15.248;2023-04-27T02:00:31;97394.31;;;5.12;100.00
13867;BME280;7003;46.982;15.248;2023-04-27T02:02:58;97401.41;;;5.11;100.00
13867;BME280;7003;46.982;15.248;2023-04-27T02:05:28;97396.38;;;5.15;100.00
13867;BME280;7003;46.982;15.248;2023-04-27T02:07:56;97399.28;;;5.13;100.00
13867;BME280;7003;46.982;15.248;2023-04-27T02:10:23;97400.66;;;5.11;100.00
13867;BME280;7003;46.982;15.248;2023-04-27T02:12:50;97403.56;;;5.09;100.00
13867;BME280;7003;46.982;15.248;2023-04-27T02:15:19;97409.06;;;5.13;100.00
13867;BME280;7003;46.982;15.248;2023-04-27T02:17:49;97404.22;;;5.20;100.00
13867;BME280;7003;46.982;15.248;2023-04-27T02:20:17;97410.28;;;5.20;100.00
13867;BME280;7003;46.982;15.248;2023-04-27T02:22:46;97404.38;;;5.28;100.00
13867;BME280;7003;46.982;15.248;2023-04-27T02:25:13;97409.88;;;5.32;100.00
13867;BME280;7003;46.982;15.248;2023-04-27T02:27:44;97412.22;;;5.52;100.00
13867;BME280;7003;46.982;15.248;2023-04-27T02:30:11;97408.69;;;5.19;100.00
13867;BME280;7003;46.982;15.248;2023-04-27T02:32:43;97406.94;;;5.15;100.00
13867;BME280;7003;46.982;15.248;2023-04-27T02:35:13;97410.06;;;5.17;100.00
13867;BME280;7003;46.982;15.248;2023-04-27T02:37:42;97408.63;;;5.06;100.00
13867;BME280;7003;46.982;15.248;2023-04-27T02:40:12;97397.28;;;5.05;100.00
13867;BME280;7003;46.982;15.248;2023-04-27T02:42:41;97406.56;;;5.02;100.00
13867;BME280;7003;46.982;15.248;2023-04-27T02:45:11;97405.97;;;5.06;100.00
13867;BME280;7003;46.982;15.248;2023-04-27T02:47:40;97402.34;;;5.01;100.00
13867;BME280;7003;46.982;15.248;2023-04-27T02:50:09;97410.19;;;5.07;100.00
13867;BME280;7003;46.982;15.248;2023-04-27T02:52:38;97400.88;;;5.14;100.00
13867;BME280;7003;46.982;15.248;2023-04-27T02:55:06;97399.38;;;5.27;100.00
13867;BME280;7003;46.982;15.248;2023-04-27T02:57:39;97400.94;;;5.28;100.00
13867;BME280;7003;46.982;15.248;2023-04-27T03:00:08;97408.22;;;5.36;100.00
13867;BME280;7003;46.982;15.248;2023-04-27T03:02:35;97410.50;;;5.24;100.00
13867;BME280;7003;46.982;15.248;2023-04-27T03:05:03;97406.03;;;5.24;100.00
13867;BME280;7003;46.982;15.248;2023-04-27T03:07:32;97406.03;;;5.24;100.00
13867;BME280;7003;46.982;15.248;2023-04-27T03:10:02;97405.34;;;5.14;100.00
13867;BME280;7003;46.982;15.248;2023-04-27T03:12:29;97410.50;;;5.24;100.00
13867;BME280;7003;46.982;15.248;2023-04-27T03:14:56;97405.59;;;5.17;100.00
13867;BME280;7003;46.982;15.248;2023-04-27T03:17:27;97415.91;;;5.14;100.00
13867;BME280;7003;46.982;15.248;2023-04-27T03:19:58;97411.50;;;5.28;100.00
13867;BME280;7003;46.982;15.248;2023-04-27T03:22:25;97415.19;;;5.27;100.00
13867;BME280;7003;46.982;15.248;2023-04-27T03:24:54;97408.38;;;5.26;100.00
13867;BME280;7003;46.982;15.248;2023-04-27T03:27:23;97419.84;;;5.16;100.00
13867;BME280;7003;46.982;15.248;2023-04-27T03:29:51;97419.41;;;5.28;100.00
13867;BME280;7003;46.982;15.248;2023-04-27T03:32:21;97419.38;;;5.33;100.00
13867;BME280;7003;46.982;15.248;2023-04-27T03:34:48;97415.06;;;5.37;100.00
13867;BME280;7003;46.982;15.248;2023-04-27T03:37:18;97417.63;;;5.42;100.00
13867;BME280;7003;46.982;15.248;2023-04-27T03:39:48;97431.84;;;5.46;100.00
13867;BME280;7003;46.982;15.248;2023-04-27T03:42:17;97427.06;;;5.48;100.00
13867;BME280;7003;46.982;15.248;2023-04-27T03:44:47;97422.78;;;5.52;100.00
13867;BME280;7003;46.982;15.248;2023-04-27T03:47:15;97423.63;;;5.66;100.00
13867;BME280;7003;46.982;15.248;2023-04-27T03:49:43;97423.72;;;5.61;100.00
13867;BME280;7003;46.982;15.248;2023-04-27T03:52:15;97424.78;;;5.60;100.00
13867;BME280;7003;46.982;15.248;2023-04-27T03:54:44;97425.28;;;5.62;100.00
13867;BME280;7003;46.982;15.248;2023-04-27T03:57:13;97431.13;;;5.59;100.00
13867;BME280;7003;46.982;15.248;2023-04-27T03:59:43;97427.34;;;5.65;100.00
13867;BME280;7003;46.982;15.248;2023-04-27T04:02:11;97426.34;;;5.61;100.00
13867;BME280;7003;46.982;15.248;2023-04-27T04:04:39;97430.69;;;5.52;100.00
13867;BME280;7003;46.982;15.248;2023-04-27T04:07:10;97430.34;;;5.40;100.00
13867;BME280;7003;46.982;15.248;2023-04-27T04:09:38;97429.44;;;5.50;100.00
13867;BME280;7003;46.982;15.248;2023-04-27T04:12:08;97439.53;;;5.42;100.00
13867;BME280;7003;46.982;15.248;2023-04-27T04:14:38;97427.13;;;5.43;100.00
13867;BME280;7003;46.982;15.248;2023-04-27T04:17:11;97431.56;;;5.48;100.00
13867;BME280;7003;46.982;15.248;2023-04-27T04:19:39;97433.91;;;5.49;100.00
13867;BME280;7003;46.982;15.248;2023-04-27T04:22:07;97432.50;;;5.57;100.00
13867;BME280;7003;46.982;15.248;2023-04-27T04:24:36;97432.97;;;5.59;100.00
13867;BME280;7003;46.982;15.248;2023-04-27T04:27:05;97427.94;;;5.62;100.00
13867;BME280;7003;46.982;15.248;2023-04-27T04:29:35;97428.91;;;5.66;100.00
13867;BME280;7003;46.982;15.248;2023-04-27T04:32:04;97436.50;;;5.92;100.00
13867;BME280;7003;46.982;15.248;2023-04-27T04:34:35;97429.06;;;5.75;100.00
13867;BME280;7003;46.982;15.248;2023-04-27T04:37:03;97439.09;;;5.73;100.00
13867;BME280;7003;46.982;15.248;2023-04-27T04:39:32;97441.47;;;5.74;100.00
13867;BME280;7003;46.982;15.248;2023-04-27T04:42:03;97444.31;;;5.78;100.00
13867;BME280;7003;46.982;15.248;2023-04-27T04:44:35;97446.69;;;5.79;100.00
13867;BME280;7003;46.982;15.248;2023-04-27T04:47:04;97442.97;;;5.80;100.00
13867;BME280;7003;46.982;15.248;2023-04-27T04:49:35;97448.91;;;5.72;100.00
13867;BME280;7003;46.982;15.248;2023-04-27T04:52:04;97452.28;;;5.73;100.00
13867;BME280;7003;46.982;15.248;2023-04-27T04:54:33;97453.38;;;5.53;100.00
13867;BME280;7003;46.982;15.248;2023-04-27T04:57:02;97451.81;;;5.52;100.00
13867;BME280;7003;46.982;15.248;2023-04-27T04:59:33;97457.94;;;5.48;100.00
13867;BME280;7003;46.982;15.248;2023-04-27T05:02:01;97452.94;;;5.46;100.00
13867;BME280;7003;46.982;15.248;2023-04-27T05:04:30;97453.03;;;5.60;100.00
13867;BME280;7003;46.982;15.248;2023-04-27T05:07:00;97455.28;;;5.66;100.00
13867;BME280;7003;46.982;15.248;2023-04-27T05:09:30;97455.59;;;5.84;100.00
13867;BME280;7003;46.982;15.248;2023-04-27T05:12:00;97448.75;;;5.82;100.00
13867;BME280;7003;46.982;15.248;2023-04-27T05:14:28;97460.31;;;5.87;100.00
13867;BME280;7003;46.982;15.248;2023-04-27T05:16:56;97465.41;;;6.02;100.00
13867;BME280;7003;46.982;15.248;2023-04-27T05:19:28;97468.72;;;6.07;100.00
13867;BME280;7003;46.982;15.248;2023-04-27T05:21:57;97462.44;;;6.22;100.00
13867;BME280;7003;46.982;15.248;2023-04-27T05:24:27;97469.69;;;6.30;100.00
13867;BME280;7003;46.982;15.248;2023-04-27T05:26:56;97470.09;;;6.37;100.00
13867;BME280;7003;46.982;15.248;2023-04-27T05:29:24;97464.25;;;6.40;100.00
13867;BME280;7003;46.982;15.248;2023-04-27T05:31:57;97476.19;;;6.51;100.00
13867;BME280;7003;46.982;15.248;2023-04-27T05:34:30;97472.69;;;6.42;100.00
13867;BME280;7003;46.982;15.248;2023-04-27T05:36:59;97471.91;;;6.55;100.00
13867;BME280;7003;46.982;15.248;2023-04-27T05:39:30;97473.22;;;6.58;100.00
13867;BME280;7003;46.982;15.248;2023-04-27T05:41:59;97476.84;;;6.76;100.00
13867;BME280;7003;46.982;15.248;2023-04-27T05:44:28;97478.59;;;6.67;100.00
13867;BME280;7003;46.982;15.248;2023-04-27T05:46:57;97479.78;;;6.74;100.00
13867;BME280;7003;46.982;15.248;2023-04-27T05:49:30;97473.34;;;6.94;100.00
13867;BME280;7003;46.982;15.248;2023-04-27T05:51:59;97471.16;;;6.82;100.00
13867;BME280;7003;46.982;15.248;2023-04-27T05:54:31;97479.50;;;6.89;100.00
13867;BME280;7003;46.982;15.248;2023-04-27T05:57:01;97472.00;;;6.97;100.00
13867;BME280;7003;46.982;15.248;2023-04-27T05:59:34;97470.41;;;7.09;100.00
13867;BME280;7003;46.982;15.248;2023-04-27T06:02:03;97477.66;;;7.31;100.00
13867;BME280;7003;46.982;15.248;2023-04-27T06:04:36;97479.59;;;7.39;100.00
13867;BME280;7003;46.982;15.248;2023-04-27T06:07:10;97481.84;;;7.46;100.00
13867;BME280;7003;46.982;15.248;2023-04-27T06:09:44;97478.00;;;7.52;100.00
13867;BME280;7003;46.982;15.248;2023-04-27T06:12:14;97485.47;;;7.63;100.00
13867;BME280;7003;46.982;15.248;2023-04-27T06:14:43;97488.22;;;7.58;100.00
13867;BME280;7003;46.982;15.248;2023-04-27T06:17:12;97485.31;;;7.82;100.00
13867;BME280;7003;46.982;15.248;2023-04-27T06:19:44;97486.59;;;7.85;100.00
13867;BME280;7003;46.982;15.248;2023-04-27T06:22:16;97488.47;;;8.06;100.00
13867;BME280;7003;46.982;15.248;2023-04-27T06:24:46;97492.34;;;8.23;100.00
13867;BME280;7003;46.982;15.248;2023-04-27T06:27:18;97497.66;;;8.45;100.00
13867;BME280;7003;46.982;15.248;2023-04-27T06:29:48;97489.63;;;8.81;100.00
13867;BME280;7003;46.982;15.248;2023-04-27T06:32:16;97494.78;;;8.86;100.00
13867;BME280;7003;46.982;15.248;2023-04-27T06:34:45;97498.28;;;8.95;100.00
13867;BME280;7003;46.982;15.248;2023-04-27T06:37:15;97500.34;;;9.07;100.00
13867;BME280;7003;46.982;15.248;2023-04-27T06:39:43;97507.28;;;9.25;100.00
13867;BME280;7003;46.982;15.248;2023-04-27T06:42:15;97497.03;;;9.41;100.00
13867;BME280;7003;46.982;15.248;2023-04-27T06:44:45;97506.94;;;9.66;100.00
13867;BME280;7003;46.982;15.248;2023-04-27T06:47:13;97498.66;;;9.76;100.00
13867;BME280;7003;46.982;15.248;2023-04-27T06:49:41;97504.47;;;9.87;100.00
13867;BME280;7003;46.982;15.248;2023-04-27T06:52:11;97510.59;;;10.13;100.00
13867;BME280;7003;46.982;15.248;2023-04-27T06:54:42;97504.50;;;10.13;100.00
13867;BME280;7003;46.982;15.248;2023-04-27T06:57:11;97502.94;;;10.12;100.00
13867;BME280;7003;46.982;15.248;2023-04-27T06:59:41;97507.81;;;10.27;100.00
13867;BME280;7003;46.982;15.248;2023-04-27T07:02:12;97510.13;;;10.46;100.00
13867;BME280;7003;46.982;15.248;2023-04-27T07:04:40;97509.50;;;10.23;100.00
13867;BME280;7003;46.982;15.248;2023-04-27T07:07:08;97503.22;;;9.84;100.00
13867;BME280;7003;46.982;15.248;2023-04-27T07:09:36;97505.16;;;10.35;100.00
13867;BME280;7003;46.982;15.248;2023-04-27T07:12:06;97506.19;;;10.69;100.00
13867;BME280;7003;46.982;15.248;2023-04-27T07:14:34;97497.59;;;11.10;100.00
13867;BME280;7003;46.982;15.248;2023-04-27T07:17:06;97497.50;;;11.36;100.00
13867;BME280;7003;46.982;15.248;2023-04-27T07:19:37;97499.81;;;11.75;100.00
13867;BME280;7003;46.982;15.248;2023-04-27T07:22:08;97492.34;;;11.89;100.00
13867;BME280;7003;46.982;15.248;2023-04-27T07:24:39;97489.03;;;12.34;100.00
13867;BME280;7003;46.982;15.248;2023-04-27T07:27:07;97488.13;;;12.63;95.99
13867;BME280;7003;46.982;15.248;2023-04-27T07:29:36;97484.63;;;12.83;86.51
13867;BME280;7003;46.982;15.248;2023-04-27T07:32:06;97478.97;;;12.97;79.92
13867;BME280;7003;46.982;15.248;2023-04-27T07:34:37;97479.19;;;13.04;80.26
13867;BME280;7003;46.982;15.248;2023-04-27T07:37:08;97476.59;;;13.16;83.69
13867;BME280;7003;46.982;15.248;2023-04-27T07:39:37;97472.97;;;13.12;79.17
13867;BME280;7003;46.982;15.248;2023-04-27T07:42:05;97462.31;;;13.36;77.07
13867;BME280;7003;46.982;15.248;2023-04-27T07:44:32;97470.22;;;13.33;77.92
13867;BME280;7003;46.982;15.248;2023-04-27T07:47:03;97469.91;;;13.46;79.13
13867;BME280;7003;46.982;15.248;2023-04-27T07:49:33;97473.53;;;13.05;68.10
13867;BME280;7003;46.982;15.248;2023-04-27T07:52:00;97478.00;;;13.14;72.55
13867;BME280;7003;46.982;15.248;2023-04-27T07:54:29;97473.25;;;13.31;69.36
13867;BME280;7003;46.982;15.248;2023-04-27T07:56:58;97475.34;;;13.50;69.52
13867;BME280;7003;46.982;15.248;2023-04-27T07:59:28;97475.88;;;13.68;68.89
13867;BME280;7003;46.982;15.248;2023-04-27T08:01:56;97476.88;;;14.15;67.01
13867;BME280;7003;46.982;15.248;2023-04-27T08:04:26;97473.38;;;14.39;66.52
13867;BME280;7003;46.982;15.248;2023-04-27T08:06:55;97475.00;;;14.44;62.10
13867;BME280;7003;46.982;15.248;2023-04-27T08:09:23;97472.88;;;14.09;69.73
13867;BME280;7003;46.982;15.248;2023-04-27T08:11:51;97473.22;;;13.56;65.43
13867;BME280;7003;46.982;15.248;2023-04-27T08:14:20;97476.53;;;13.65;68.09
13867;BME280;7003;46.982;15.248;2023-04-27T08:16:48;97462.03;;;14.18;66.02
13867;BME280;7003;46.982;15.248;2023-04-27T08:19:17;97464.84;;;14.09;62.27
13867;BME280;7003;46.982;15.248;2023-04-27T08:21:51;97467.03;;;14.59;65.00
13867;BME280;7003;46.982;15.248;2023-04-27T08:24:23;97461.63;;;14.44;60.85
13867;BME280;7003;46.982;15.248;2023-04-27T08:26:51;97460.09;;;14.31;61.42
13867;BME280;7003;46.982;15.248;2023-04-27T08:29:21;97465.06;;;14.88;65.42
13867;BME280;7003;46.982;15.248;2023-04-27T08:31:49;97463.59;;;14.90;60.32
13867;BME280;7003;46.982;15.248;2023-04-27T08:34:18;97458.94;;;15.19;61.54
13867;BME280;7003;46.982;15.248;2023-04-27T08:36:49;97459.03;;;15.07;57.84
13867;BME280;7003;46.982;15.248;2023-04-27T08:39:19;97453.22;;;15.36;65.12
13867;BME280;7003;46.982;15.248;2023-04-27T08:41:51;97456.63;;;14.42;63.34
13867;BME280;7003;46.982;15.248;2023-04-27T08:44:19;97456.06;;;14.80;61.74
13867;BME280;7003;46.982;15.248;2023-04-27T08:46:48;97453.56;;;15.19;62.23
13867;BME280;7003;46.982;15.248;2023-04-27T08:49:17;97450.22;;;15.22;61.19
13867;BME280;7003;46.982;15.248;2023-04-27T08:51:45;97445.28;;;15.24;62.57
13867;BME280;7003;46.982;15.248;2023-04-27T08:54:16;97451.19;;;15.64;61.19
13867;BME280;7003;46.982;15.248;2023-04-27T08:56:46;97453.50;;;16.01;59.74
13867;BME280;7003;46.982;15.248;2023-04-27T08:59:15;97450.31;;;15.95;59.71
13867;BME280;7003;46.982;15.248;2023-04-27T09:01:44;97444.41;;;16.05;58.53
13867;BME280;7003;46.982;15.248;2023-04-27T09:04:16;97440.00;;;16.36;59.68
13867;BME280;7003;46.982;15.248;2023-04-27T09:06:44;97439.81;;;16.06;60.63
13867;BME280;7003;46.982;15.248;2023-04-27T09:09:23;97438.47;;;16.58;57.46
13867;BME280;7003;46.982;15.248;2023-04-27T09:11:53;97442.59;;;16.71;60.08
13867;BME280;7003;46.982;15.248;2023-04-27T09:14:23;97440.22;;;16.27;55.78
13867;BME280;7003;46.982;15.248;2023-04-27T09:16:54;97440.09;;;16.01;57.56
13867;BME280;7003;46.982;15.248;2023-04-27T09:19:28;97432.53;;;16.06;58.00
13867;BME280;7003;46.982;15.248;2023-04-27T09:22:06;97438.66;;;15.88;58.50
13867;BME280;7003;46.982;15.248;2023-04-27T09:24:49;97436.84;;;15.41;59.24
13867;BME280;7003;46.982;15.248;2023-04-27T09:27:21;97429.63;;;15.26;58.78
13867;BME280;7003;46.982;15.248;2023-04-27T09:29:53;97439.28;;;15.62;62.41
13867;BME280;7003;46.982;15.248;2023-04-27T09:32:21;97422.28;;;16.12;59.20
13867;BME280;7003;46.982;15.248;2023-04-27T09:34:49;97421.00;;;16.44;57.82
13867;BME280;7003;46.982;15.248;2023-04-27T09:37:21;97419.03;;;16.83;57.17
13867;BME280;7003;46.982;15.248;2023-04-27T09:39:57;97403.63;;;17.03;54.84
13867;BME280;7003;46.982;15.248;2023-04-27T09:42:25;97413.06;;;17.20;59.51
13867;BME280;7003;46.982;15.248;2023-04-27T09:44:58;97401.31;;;17.05;55.64
13867;BME280;7003;46.982;15.248;2023-04-27T09:47:32;97406.94;;;16.74;57.72
13867;BME280;7003;46.982;15.248;2023-04-27T09:50:04;97399.72;;;17.01;58.01
13867;BME280;7003;46.982;15.248;2023-04-27T09:52:36;97406.25;;;16.58;56.49
13867;BME280;7003;46.982;15.248;2023-04-27T09:55:06;97404.56;;;16.69;58.75
13867;BME280;7003;46.982;15.248;2023-04-27T09:57:39;97398.84;;;16.93;56.87
13867;BME280;7003;46.982;15.248;2023-04-27T10:00:24;97403.31;;;17.08;57.76
13867;BME280;7003;46.982;15.248;2023-04-27T10:03:04;97398.84;;;17.46;56.91
13867;BME280;7003;46.982;15.248;2023-04-27T10:05:42;97391.81;;;17.38;54.30
13867;BME280;7003;46.982;15.248;2023-04-27T10:08:14;97399.78;;;17.30;55.75
13867;BME280;7003;46.982;15.248;2023-04-27T10:10:48;97395.81;;;16.72;56.70
13867;BME280;7003;46.982;15.248;2023-04-27T10:13:21;97389.91;;;16.85;59.64
13867;BME280;7003;46.982;15.248;2023-04-27T10:15:51;97389.03;;;16.81;55.63
13867;BME280;7003;46.982;15.248;2023-04-27T10:18:26;97389.03;;;16.59;57.92
13867;BME280;7003;46.982;15.248;2023-04-27T10:20:56;97386.72;;;16.15;56.79
13867;BME280;7003;46.982;15.248;2023-04-27T10:23:45;97385.53;;;16.35;64.10
13867;BME280;7003;46.982;15.248;2023-04-27T10:26:21;97370.09;;;16.97;58.41
13867;BME280;7003;46.982;15.248;2023-04-27T10:28:56;97376.44;;;17.08;56.57
13867;BME280;7003;46.982;15.248;2023-04-27T10:31:30;97374.19;;;16.65;57.29
13867;BME280;7003;46.982;15.248;2023-04-27T10:34:05;97385.31;;;16.44;58.20
13867;BME280;7003;46.982;15.248;2023-04-27T10:36:34;97381.34;;;16.15;57.33
13867;BME280;7003;46.982;15.248;2023-04-27T10:39:13;97377.28;;;15.48;58.98
13867;BME280;7003;46.982;15.248;2023-04-27T10:41:52;97374.63;;;16.25;60.77
13867;BME280;7003;46.982;15.248;2023-04-27T10:44:25;97372.16;;;16.81;63.00
13867;BME280;7003;46.982;15.248;2023-04-27T10:46:58;97367.94;;;15.07;63.42
13867;BME280;7003;46.982;15.248;2023-04-27T10:49:29;97363.97;;;16.09;57.75
13867;BME280;7003;46.982;15.248;2023-04-27T10:51:58;97363.50;;;16.68;58.80
13867;BME280;7003;46.982;15.248;2023-04-27T10:54:33;97349.56;;;17.08;58.94
13867;BME280;7003;46.982;15.248;2023-04-27T10:57:06;97352.38;;;17.75;59.92
13867;BME280;7003;46.982;15.248;2023-04-27T10:59:47;97356.44;;;18.29;59.55
13867;BME280;7003;46.982;15.248;2023-04-27T11:02:25;97352.25;;;18.72;54.17
13867;BME280;7003;46.982;15.248;2023-04-27T11:04:54;97354.28;;;18.45;50.41
13867;BME280;7003;46.982;15.248;2023-04-27T11:07:23;97349.84;;;18.23;53.18
13867;BME280;7003;46.982;15.248;2023-04-27T11:09:53;97350.09;;;18.92;51.39
13867;BME280;7003;46.982;15.248;2023-04-27T11:12:24;97360.44;;;18.42;51.89
13867;BME280;7003;46.982;15.248;2023-04-27T11:14:56;97358.63;;;19.01;53.55
13867;BME280;7003;46.982;15.248;2023-04-27T11:17:30;97360.16;;;17.80;54.97
13867;BME280;7003;46.982;15.248;2023-04-27T11:19:59;97361.53;;;16.65;56.37
13867;BME280;7003;46.982;15.248;2023-04-27T11:22:27;97364.97;;;16.01;56.20
13867;BME280;7003;46.982;15.248;2023-04-27T11:24:57;97357.19;;;16.15;59.87
13867;BME280;7003;46.982;15.248;2023-04-27T11:27:35;97354.25;;;15.82;61.11
13867;BME280;7003;46.982;15.248;2023-04-27T11:30:05;97355.94;;;15.90;64.02
13867;BME280;7003;46.982;15.248;2023-04-27T11:32:36;97361.25;;;15.86;58.44
13867;BME280;7003;46.982;15.248;2023-04-27T11:35:04;97352.94;;;16.33;60.86
13867;BME280;7003;46.982;15.248;2023-04-27T11:37:35;97360.00;;;16.22;58.53
13867;BME280;7003;46.982;15.248;2023-04-27T11:40:04;97353.06;;;15.79;66.90
13867;BME280;7003;46.982;15.248;2023-04-27T11:42:34;97348.81;;;16.39;62.66
13867;BME280;7003;46.982;15.248;2023-04-27T11:45:09;97349.56;;;16.17;61.03
13867;BME280;7003;46.982;15.248;2023-04-27T11:47:45;97345.47;;;16.04;72.67
13867;BME280;7003;46.982;15.248;2023-04-27T11:50:14;97353.94;;;16.25;67.77
13867;BME280;7003;46.982;15.248;2023-04-27T11:52:48;97350.81;;;15.11;63.20
13867;BME280;7003;46.982;15.248;2023-04-27T11:55:19;97354.22;;;14.92;63.45
13867;BME280;7003;46.982;15.248;2023-04-27T11:57:47;97357.22;;;15.07;61.88
13867;BME280;7003;46.982;15.248;2023-04-27T12:00:16;97355.47;;;15.49;65.65
13867;BME280;7003;46.982;15.248;2023-04-27T12:02:46;97355.34;;;16.42;61.11
13867;BME280;7003;46.982;15.248;2023-04-27T12:05:16;97353.28;;;16.54;56.37
13867;BME280;7003;46.982;15.248;2023-04-27T12:07:45;97358.25;;;16.10;66.08
13867;BME280;7003;46.982;15.248;2023-04-27T12:10:15;97348.63;;;17.23;63.09
13867;BME280;7003;46.982;15.248;2023-04-27T12:12:43;97344.13;;;17.61;56.59
13867;BME280;7003;46.982;15.248;2023-04-27T12:15:14;97347.06;;;16.96;60.12
13867;BME280;7003;46.982;15.248;2023-04-27T12:17:42;97354.06;;;16.13;59.34
13867;BME280;7003;46.982;15.248;2023-04-27T12:20:12;97351.25;;;15.48;66.42
13867;BME280;7003;46.982;15.248;2023-04-27T12:22:40;97341.00;;;15.34;67.36
13867;BME280;7003;46.982;15.248;2023-04-27T12:25:08;97345.50;;;15.85;63.15
13867;BME280;7003;46.982;15.248;2023-04-27T12:27:37;97346.59;;;15.45;65.15
13867;BME280;7003;46.982;15.248;2023-04-27T12:30:05;97344.16;;;16.36;63.37
13867;BME280;7003;46.982;15.248;2023-04-27T12:32:33;97340.88;;;16.46;61.48
13867;BME280;7003;46.982;15.248;2023-04-27T12:35:02;97335.53;;;16.04;62.46
13867;BME280;7003;46.982;15.248;2023-04-27T12:37:35;97342.47;;;16.51;62.94
13867;BME280;7003;46.982;15.248;2023-04-27T12:40:06;97343.00;;;15.95;61.63
13867;BME280;7003;46.982;15.248;2023-04-27T12:42:37;97339.56;;;16.82;62.63
13867;BME280;7003;46.982;15.248;2023-04-27T12:45:06;97343.06;;;17.39;54.84
13867;BME280;7003;46.982;15.248;2023-04-27T12:47:35;97327.28;;;18.38;55.91
13867;BME280;7003;46.982;15.248;2023-04-27T12:50:06;97331.94;;;18.41;54.20
13867;BME280;7003;46.982;15.248;2023-04-27T12:52:37;97335.41;;;18.04;55.67
13867;BME280;7003;46.982;15.248;2023-04-27T12:55:06;97335.69;;;17.33;52.99
13867;BME280;7003;46.982;15.248;2023-04-27T12:57:34;97328.31;;;17.56;56.45
13867;BME280;7003;46.982;15.248;2023-04-27T13:00:05;97327.75;;;16.87;57.36
13867;BME280;7003;46.982;15.248;2023-04-27T13:02:36;97332.22;;;17.32;53.02
13867;BME280;7003;46.982;15.248;2023-04-27T13:05:05;97338.28;;;17.85;55.52
13867;BME280;7003;46.982;15.248;2023-04-27T13:07:33;97322.06;;;17.18;55.02
13867;BME280;7003;46.982;15.248;2023-04-27T13:10:05;97332.25;;;17.36;60.58
13867;BME280;7003;46.982;15.248;2023-04-27T13:12:33;97327.34;;;18.45;55.75
13867;BME280;7003;46.982;15.248;2023-04-27T13:15:01;97327.34;;;18.45;58.36